Time;durP1;ratioP1;P1;durP2;ratioP2;P2;SDS_P1;SDS_P2;PMS_P1;PMS_P2;Temp;Humidity;BMP_temperature;BMP_pressure;BME280_temperature;BME280_humidity;BME280_pressure;Samples;Min_cycle;Max_cycle;Signal;HPM_P1;HPM_P2
2023/05/25 00:01:42;;;;;;;4.80;3.75;;;;;;;;;;4340997;32;317595;-84
2023/05/25 00:04:09;;;;;;;7.82;3.70;;;;;;;;;;4350689;32;316773;-89
2023/05/25 00:06:39;;;;;;;5.65;4.15;;;;;;;;;;4342695;32;317054;-88
2023/05/25 00:09:06;;;;;;;5.68;3.80;;;;;;;;;;4360026;32;317342;-78
2023/05/25 00:11:34;;;;;;;5.90;4.03;;;;;;;;;;4350876;32;317724;-78
2023/05/25 00:14:01;;;;;;;4.65;3.90;;;;;;;;;;4359918;32;316465;-87
2023/05/25 00:16:28;;;;;;;8.23;3.90;;;;;;;;;;4347835;32;317315;-90
2023/05/25 00:18:56;;;;;;;6.25;4.03;;;;;;;;;;4356687;32;332047;-84
2023/05/25 00:21:23;;;;;;;6.12;4.12;;;;;;;;;;4355479;32;316639;-89
2023/05/25 00:23:49;;;;;;;9.13;4.25;;;;;;;;;;4344963;32;317450;-91
2023/05/25 00:26:16;;;;;;;5.12;4.10;;;;;;;;;;4354182;32;316716;-90
2023/05/25 00:28:44;;;;;;;6.30;4.82;;;;;;;;;;4342964;32;316876;-92
2023/05/25 00:31:11;;;;;;;6.22;4.53;;;;;;;;;;4354495;32;317342;-91
2023/05/25 00:33:38;;;;;;;7.53;3.85;;;;;;;;;;4343167;32;316487;-91
2023/05/25 00:36:05;;;;;;;7.55;3.47;;;;;;;;;;4352958;32;328044;-92
2023/05/25 00:38:32;;;;;;;5.85;4.00;;;;;;;;;;4344613;32;316765;-88
2023/05/25 00:40:59;;;;;;;4.93;3.47;;;;;;;;;;4352578;32;316693;-89
2023/05/25 00:43:26;;;;;;;4.35;3.95;;;;;;;;;;4354048;32;316489;-85
2023/05/25 00:45:55;;;;;;;5.37;3.72;;;;;;;;;;4344779;32;317174;-78
2023/05/25 00:48:22;;;;;;;5.32;3.47;;;;;;;;;;4354595;32;317233;-91
2023/05/25 00:50:53;;;;;;;6.15;3.25;;;;;;;;;;4344645;32;317143;-88
2023/05/25 00:53:20;;;;;;;4.18;3.62;;;;;;;;;;4353593;32;317148;-90
2023/05/25 00:55:53;;;;;;;4.60;4.10;;;;;;;;;;4342979;32;317740;-88
2023/05/25 00:58:24;;;;;;;7.03;4.50;;;;;;;;;;4352509;32;317156;-88
2023/05/25 01:00:52;;;;;;;8.00;4.30;;;;;;;;;;4342215;32;351831;-85
2023/05/25 01:03:27;;;;;;;10.43;4.85;;;;;;;;;;4352460;32;316983;-86
2023/05/25 01:05:56;;;;;;;7.57;4.68;;;;;;;;;;4340132;32;417474;-91
2023/05/25 01:08:24;;;;;;;8.73;4.78;;;;;;;;;;4354325;32;316529;-90
2023/05/25 01:10:52;;;;;;;11.88;5.15;;;;;;;;;;4344249;32;317268;-81
2023/05/25 01:13:20;;;;;;;6.72;4.22;;;;;;;;;;4353059;32;318169;-91
2023/05/25 01:15:48;;;;;;;12.05;4.85;;;;;;;;;;4343244;32;316527;-89
2023/05/25 01:18:16;;;;;;;6.95;5.45;;;;;;;;;;4351763;32;318251;-81
2023/05/25 01:20:58;;;;;;;11.45;4.75;;;;;;;;;;4343227;32;317205;-79
2023/05/25 01:23:30;;;;;;;6.50;4.68;;;;;;;;;;4353079;32;318783;-90
2023/05/25 01:26:01;;;;;;;6.00;5.40;;;;;;;;;;4340376;32;418639;-89
2023/05/25 01:28:31;;;;;;;5.30;4.50;;;;;;;;;;4330549;32;317339;-85
2023/05/25 01:30:59;;;;;;;14.30;4.72;;;;;;;;;;4324925;32;317891;-87
2023/05/25 01:33:28;;;;;;;8.55;5.15;;;;;;;;;;4338871;32;318236;-91
2023/05/25 01:35:57;;;;;;;6.00;4.12;;;;;;;;;;4339800;32;417759;-90
2023/05/25 01:38:24;;;;;;;5.53;4.10;;;;;;;;;;4352631;32;316375;-87
2023/05/25 01:40:51;;;;;;;6.20;4.30;;;;;;;;;;4343260;32;317318;-91
2023/05/25 01:43:18;;;;;;;5.45;4.15;;;;;;;;;;4353359;32;317091;-90
2023/05/25 01:45:44;;;;;;;5.45;3.97;;;;;;;;;;4343823;32;316794;-91
2023/05/25 01:48:20;;;;;;;5.68;3.85;;;;;;;;;;4353008;32;316795;-81
2023/05/25 01:51:02;;;;;;;7.40;4.47;;;;;;;;;;4344128;32;317553;-82
2023/05/25 01:53:31;;;;;;;4.65;3.83;;;;;;;;;;4343584;32;317254;-80
2023/05/25 01:56:02;;;;;;;5.35;4.30;;;;;;;;;;4352827;32;317062;-80
2023/05/25 01:58:34;;;;;;;6.53;4.18;;;;;;;;;;4343561;32;317234;-83
2023/05/25 02:01:01;;;;;;;7.32;3.72;;;;;;;;;;4353632;32;317021;-80
2023/05/25 02:03:28;;;;;;;8.25;4.18;;;;;;;;;;4342261;32;317559;-82
2023/05/25 02:05:56;;;;;;;11.02;4.45;;;;;;;;;;4349858;32;355004;-80
2023/05/25 02:08:24;;;;;;;6.28;4.07;;;;;;;;;;4351188;32;318036;-80
2023/05/25 02:10:51;;;;;;;9.65;4.53;;;;;;;;;;4343143;32;317122;-80
2023/05/25 02:13:18;;;;;;;8.15;5.37;;;;;;;;;;4351291;32;316678;-81
2023/05/25 02:15:45;;;;;;;8.88;5.18;;;;;;;;;;4342319;32;351699;-79
2023/05/25 02:18:12;;;;;;;7.18;4.85;;;;;;;;;;4352053;32;317125;-80
2023/05/25 02:20:39;;;;;;;11.70;5.12;;;;;;;;;;4341134;32;349816;-80
2023/05/25 02:23:06;;;;;;;9.18;4.87;;;;;;;;;;4350805;32;338895;-79
2023/05/25 02:25:34;;;;;;;10.02;4.57;;;;;;;;;;4343099;32;317705;-80
2023/05/25 02:28:01;;;;;;;6.72;4.70;;;;;;;;;;4352715;32;317776;-79
2023/05/25 02:30:27;;;;;;;11.60;4.68;;;;;;;;;;4342834;32;317274;-81
2023/05/25 02:32:55;;;;;;;8.02;4.72;;;;;;;;;;4351599;32;318708;-80
2023/05/25 02:35:22;;;;;;;8.98;4.82;;;;;;;;;;4352839;32;316553;-82
2023/05/25 02:37:48;;;;;;;11.02;4.87;;;;;;;;;;4343036;32;317204;-79
2023/05/25 02:40:17;;;;;;;6.72;4.85;;;;;;;;;;4351695;32;317812;-79
2023/05/25 02:42:45;;;;;;;6.15;4.80;;;;;;;;;;4342323;32;317435;-79
2023/05/25 02:45:12;;;;;;;7.80;5.47;;;;;;;;;;4352582;32;317186;-79
2023/05/25 02:47:38;;;;;;;6.55;5.47;;;;;;;;;;4342631;32;317345;-79
2023/05/25 02:50:06;;;;;;;6.12;5.00;;;;;;;;;;4351170;32;317044;-80
2023/05/25 02:52:33;;;;;;;10.20;5.55;;;;;;;;;;4342125;32;334316;-80
2023/05/25 02:54:59;;;;;;;11.80;4.85;;;;;;;;;;4352016;32;318096;-79
2023/05/25 02:57:27;;;;;;;7.60;5.37;;;;;;;;;;4352353;32;318229;-89
2023/05/25 02:59:55;;;;;;;7.53;5.50;;;;;;;;;;4339733;32;417745;-87
2023/05/25 03:02:24;;;;;;;9.18;5.05;;;;;;;;;;4351036;32;317205;-91
2023/05/25 03:04:52;;;;;;;5.18;4.65;;;;;;;;;;4342530;32;317835;-88
2023/05/25 03:07:19;;;;;;;11.27;5.90;;;;;;;;;;4352476;32;316901;-87
2023/05/25 03:09:46;;;;;;;7.68;6.18;;;;;;;;;;4342643;32;318455;-78
2023/05/25 03:12:12;;;;;;;8.32;5.28;;;;;;;;;;4352431;32;317482;-90
2023/05/25 03:14:39;;;;;;;8.93;5.32;;;;;;;;;;4341471;32;316850;-89
2023/05/25 03:17:07;;;;;;;6.72;5.60;;;;;;;;;;4351841;32;316847;-79
2023/05/25 03:19:35;;;;;;;7.15;5.50;;;;;;;;;;4341693;32;339253;-88
2023/05/25 03:22:02;;;;;;;8.05;5.28;;;;;;;;;;4351523;32;316672;-86
2023/05/25 03:24:29;;;;;;;10.30;5.87;;;;;;;;;;4341297;32;316819;-88
2023/05/25 03:26:56;;;;;;;14.60;6.40;;;;;;;;;;4351583;32;333149;-79
2023/05/25 03:29:23;;;;;;;8.65;5.18;;;;;;;;;;4352001;32;317889;-88
2023/05/25 03:31:49;;;;;;;7.60;5.57;;;;;;;;;;4341249;32;317346;-88
2023/05/25 03:34:17;;;;;;;9.00;5.90;;;;;;;;;;4350862;32;316915;-88
2023/05/25 03:36:46;;;;;;;8.63;7.03;;;;;;;;;;4341272;32;317383;-89
2023/05/25 03:39:13;;;;;;;14.68;7.53;;;;;;;;;;4351668;32;316770;-87
2023/05/25 03:41:41;;;;;;;17.08;6.60;;;;;;;;;;4343690;32;318719;-82
2023/05/25 03:44:09;;;;;;;8.70;6.37;;;;;;;;;;4353863;32;317688;-81
2023/05/25 03:46:36;;;;;;;21.37;6.62;;;;;;;;;;4345167;32;317910;-81
2023/05/25 03:49:03;;;;;;;7.28;6.50;;;;;;;;;;4354907;32;317723;-80
2023/05/25 03:51:31;;;;;;;9.85;6.18;;;;;;;;;;4345170;32;317250;-83
2023/05/25 03:53:58;;;;;;;10.18;5.95;;;;;;;;;;4354566;32;317223;-82
2023/05/25 03:56:25;;;;;;;6.78;5.53;;;;;;;;;;4353524;32;318297;-82
2023/05/25 03:58:52;;;;;;;10.30;6.85;;;;;;;;;;4344151;32;317340;-86
2023/05/25 04:01:18;;;;;;;11.50;5.75;;;;;;;;;;4353609;32;318017;-84
2023/05/25 04:03:45;;;;;;;9.35;6.15;;;;;;;;;;4343853;32;318279;-85
2023/05/25 04:06:12;;;;;;;8.18;5.90;;;;;;;;;;4354866;32;316602;-87
2023/05/25 04:08:40;;;;;;;17.20;6.65;;;;;;;;;;4344958;32;317971;-88
2023/05/25 04:11:07;;;;;;;13.52;7.12;;;;;;;;;;4353207;32;346723;-87
2023/05/25 04:13:35;;;;;;;10.68;6.32;;;;;;;;;;4344502;32;318241;-88
2023/05/25 04:16:02;;;;;;;11.50;6.43;;;;;;;;;;4354719;32;318458;-87
2023/05/25 04:18:29;;;;;;;16.75;6.72;;;;;;;;;;4344462;32;318381;-87
2023/05/25 04:20:56;;;;;;;17.90;7.40;;;;;;;;;;4353238;32;318284;-91
2023/05/25 04:23:23;;;;;;;15.80;6.43;;;;;;;;;;4354412;32;318586;-80
2023/05/25 04:25:51;;;;;;;19.73;7.20;;;;;;;;;;4348479;32;318206;-78
2023/05/25 04:28:18;;;;;;;21.10;7.87;;;;;;;;;;4359189;32;318387;-80
2023/05/25 04:30:44;;;;;;;9.10;6.80;;;;;;;;;;4333727;32;318364;-89
2023/05/25 04:33:12;;;;;;;8.65;6.30;;;;;;;;;;4353272;32;317286;-92
2023/05/25 04:35:39;;;;;;;11.45;6.85;;;;;;;;;;4351998;32;316431;-85
2023/05/25 04:38:06;;;;;;;7.18;6.28;;;;;;;;;;4354740;32;318433;-92
2023/05/25 04:40:34;;;;;;;12.10;6.70;;;;;;;;;;4345032;32;317394;-90
2023/05/25 04:43:02;;;;;;;9.68;6.32;;;;;;;;;;4354105;32;318291;-84
2023/05/25 04:45:30;;;;;;;7.00;6.07;;;;;;;;;;4344421;32;317266;-90
2023/05/25 04:48:00;;;;;;;8.25;6.30;;;;;;;;;;4354199;32;316577;-88
2023/05/25 04:50:27;;;;;;;7.20;5.37;;;;;;;;;;4353966;32;317490;-82
2023/05/25 04:52:54;;;;;;;12.18;5.60;;;;;;;;;;4341560;32;417800;-80
2023/05/25 04:55:20;;;;;;;6.65;5.82;;;;;;;;;;4354773;32;318533;-86
2023/05/25 04:57:47;;;;;;;8.07;5.57;;;;;;;;;;4343683;32;317352;-89
2023/05/25 05:00:17;;;;;;;10.45;5.45;;;;;;;;;;4353973;32;317168;-91
2023/05/25 05:02:44;;;;;;;10.82;5.65;;;;;;;;;;4343309;32;341862;-93
2023/05/25 05:05:11;;;;;;;9.85;5.15;;;;;;;;;;4353740;32;318510;-92
2023/05/25 05:07:38;;;;;;;10.45;5.65;;;;;;;;;;4344063;32;317194;-78
2023/05/25 05:10:05;;;;;;;11.32;5.97;;;;;;;;;;4352807;32;318811;-88
2023/05/25 05:12:32;;;;;;;10.43;6.40;;;;;;;;;;4343893;32;318461;-82
2023/05/25 05:14:59;;;;;;;9.52;7.37;;;;;;;;;;4354561;32;317773;-90
2023/05/25 05:17:29;;;;;;;11.48;6.47;;;;;;;;;;4352748;32;316885;-87
2023/05/25 05:19:56;;;;;;;16.05;7.57;;;;;;;;;;4340991;32;417365;-89
2023/05/25 05:22:23;;;;;;;21.23;7.75;;;;;;;;;;4353572;32;318368;-86
2023/05/25 05:24:49;;;;;;;16.35;7.75;;;;;;;;;;4342574;32;318676;-91
2023/05/25 05:27:16;;;;;;;14.57;8.43;;;;;;;;;;4352535;32;318457;-85
2023/05/25 05:29:43;;;;;;;14.23;6.93;;;;;;;;;;4343252;32;340456;-89
2023/05/25 05:32:10;;;;;;;17.65;6.87;;;;;;;;;;4354663;32;318407;-88
2023/05/25 05:34:38;;;;;;;14.98;7.62;;;;;;;;;;4347757;32;318781;-84
2023/05/25 05:37:05;;;;;;;13.65;7.00;;;;;;;;;;4356850;32;318311;-83
2023/05/25 05:39:32;;;;;;;11.75;7.85;;;;;;;;;;4344734;32;318819;-81
2023/05/25 05:41:59;;;;;;;13.13;6.55;;;;;;;;;;4353892;32;318199;-81
2023/05/25 05:44:25;;;;;;;13.32;7.15;;;;;;;;;;4353680;32;317862;-89
2023/05/25 05:46:58;;;;;;;15.68;7.28;;;;;;;;;;4343612;32;356698;-84
2023/05/25 05:49:25;;;;;;;9.35;6.53;;;;;;;;;;4354588;32;318676;-90
2023/05/25 05:51:53;;;;;;;14.65;6.85;;;;;;;;;;4347035;32;317474;-89
2023/05/25 05:54:20;;;;;;;8.70;6.22;;;;;;;;;;4359928;32;318172;-92
2023/05/25 05:56:47;;;;;;;10.43;6.43;;;;;;;;;;4349491;32;317404;-79
2023/05/25 05:59:13;;;;;;;11.63;7.10;;;;;;;;;;4353149;32;317688;-91
2023/05/25 06:01:41;;;;;;;10.55;6.12;;;;;;;;;;4343626;32;329601;-90
2023/05/25 06:04:08;;;;;;;17.35;7.53;;;;;;;;;;4358227;32;318288;-88
2023/05/25 06:06:36;;;;;;;15.70;6.47;;;;;;;;;;4343997;32;318325;-89
2023/05/25 06:09:05;;;;;;;10.45;6.72;;;;;;;;;;4352929;32;318165;-91
2023/05/25 06:11:34;;;;;;;16.37;6.75;;;;;;;;;;4343576;32;327907;-89
2023/05/25 06:14:01;;;;;;;10.05;5.95;;;;;;;;;;4352959;32;317630;-88
2023/05/25 06:16:28;;;;;;;10.27;5.60;;;;;;;;;;4350908;32;318096;-82
2023/05/25 06:18:55;;;;;;;16.60;5.85;;;;;;;;;;4352431;32;318272;-88
2023/05/25 06:21:21;;;;;;;14.68;5.95;;;;;;;;;;4352665;32;317698;-90
2023/05/25 06:23:48;;;;;;;12.80;5.65;;;;;;;;;;4343000;32;317698;-89
2023/05/25 06:26:16;;;;;;;8.30;5.30;;;;;;;;;;4352907;32;318046;-88
2023/05/25 06:28:43;;;;;;;9.15;5.78;;;;;;;;;;4343276;32;316564;-91
2023/05/25 06:31:10;;;;;;;13.88;5.65;;;;;;;;;;4352814;32;316697;-87
2023/05/25 06:33:37;;;;;;;12.05;6.03;;;;;;;;;;4343088;32;318320;-85
2023/05/25 06:36:04;;;;;;;8.70;5.30;;;;;;;;;;4351846;32;318475;-87
2023/05/25 06:38:31;;;;;;;10.13;5.30;;;;;;;;;;4343196;32;317209;-90
2023/05/25 06:41:01;;;;;;;9.32;5.57;;;;;;;;;;4351695;32;316777;-93
2023/05/25 06:43:30;;;;;;;8.77;5.00;;;;;;;;;;4341089;32;378301;-86
2023/05/25 06:45:57;;;;;;;8.05;5.05;;;;;;;;;;4351346;32;316534;-88
2023/05/25 06:48:24;;;;;;;6.72;4.78;;;;;;;;;;4352335;32;317500;-92
2023/05/25 06:50:51;;;;;;;7.60;4.62;;;;;;;;;;4342250;32;317215;-79
2023/05/25 06:53:18;;;;;;;9.20;4.82;;;;;;;;;;4350725;32;317239;-87
2023/05/25 06:55:44;;;;;;;6.07;4.53;;;;;;;;;;4341779;32;317293;-86
2023/05/25 06:58:12;;;;;;;7.22;4.82;;;;;;;;;;4352708;32;316799;-86
2023/05/25 07:00:40;;;;;;;8.95;4.95;;;;;;;;;;4340576;32;344464;-83
2023/05/25 07:03:06;;;;;;;12.20;5.53;;;;;;;;;;4350625;32;317237;-85
2023/05/25 07:05:33;;;;;;;6.70;4.90;;;;;;;;;;4342565;32;318263;-90
2023/05/25 07:08:00;;;;;;;7.68;5.12;;;;;;;;;;4352144;32;317597;-83
2023/05/25 07:10:27;;;;;;;10.77;5.43;;;;;;;;;;4351645;32;317299;-91
2023/05/25 07:12:53;;;;;;;5.55;4.78;;;;;;;;;;4338763;32;417779;-85
2023/05/25 07:15:21;;;;;;;5.72;4.95;;;;;;;;;;4352019;32;317124;-80
2023/05/25 07:17:49;;;;;;;5.60;4.85;;;;;;;;;;4342712;32;316900;-80
2023/05/25 07:20:16;;;;;;;5.93;4.20;;;;;;;;;;4352368;32;317663;-92
2023/05/25 07:22:43;;;;;;;8.13;4.72;;;;;;;;;;4342392;32;317056;-80
2023/05/25 07:25:10;;;;;;;5.55;4.62;;;;;;;;;;4352888;32;317143;-92
2023/05/25 07:27:37;;;;;;;8.52;5.05;;;;;;;;;;4341655;32;316848;-82
2023/05/25 07:30:06;;;;;;;16.25;5.07;;;;;;;;;;4348476;32;317096;-88
2023/05/25 07:32:32;;;;;;;11.07;4.80;;;;;;;;;;4337036;32;318382;-82
2023/05/25 07:35:01;;;;;;;8.60;4.65;;;;;;;;;;4335171;32;318403;-89
2023/05/25 07:37:27;;;;;;;7.30;4.10;;;;;;;;;;4351732;32;317624;-88
2023/05/25 07:39:54;;;;;;;6.25;4.22;;;;;;;;;;4342496;32;317160;-93
2023/05/25 07:42:21;;;;;;;7.70;4.45;;;;;;;;;;4350810;32;317277;-80
2023/05/25 07:44:48;;;;;;;9.73;4.68;;;;;;;;;;4341353;32;317023;-86
2023/05/25 07:47:15;;;;;;;13.48;4.30;;;;;;;;;;4351049;32;316574;-84
2023/05/25 07:49:41;;;;;;;4.78;4.18;;;;;;;;;;4342684;32;318623;-93
2023/05/25 07:52:09;;;;;;;6.95;4.35;;;;;;;;;;4351986;32;317495;-89
2023/05/25 07:54:38;;;;;;;5.03;3.90;;;;;;;;;;4342555;32;316428;-79
2023/05/25 07:57:06;;;;;;;5.78;4.75;;;;;;;;;;4351938;32;317373;-90
2023/05/25 07:59:34;;;;;;;4.75;4.05;;;;;;;;;;4352371;32;316644;-84
2023/05/25 08:02:00;;;;;;;4.95;4.30;;;;;;;;;;4328655;32;317062;-80
2023/05/25 08:04:27;;;;;;;15.63;4.00;;;;;;;;;;4352208;32;317539;-84
2023/05/25 08:06:54;;;;;;;8.02;3.87;;;;;;;;;;4340890;32;318223;-84
2023/05/25 08:09:22;;;;;;;9.52;4.18;;;;;;;;;;4342511;32;316555;-83
2023/05/25 08:11:49;;;;;;;11.10;4.68;;;;;;;;;;4342057;32;317064;-93
2023/05/25 08:14:16;;;;;;;6.90;4.50;;;;;;;;;;4348706;32;320542;-86
2023/05/25 08:16:43;;;;;;;5.95;4.65;;;;;;;;;;4341271;32;317421;-92
2023/05/25 08:19:10;;;;;;;9.88;4.97;;;;;;;;;;4350902;32;317179;-81
2023/05/25 08:21:38;;;;;;;4.90;4.00;;;;;;;;;;4341757;32;317265;-81
2023/05/25 08:24:07;;;;;;;5.50;4.25;;;;;;;;;;4350890;32;316598;-85
2023/05/25 08:26:36;;;;;;;6.57;4.35;;;;;;;;;;4355096;32;317061;-88
2023/05/25 08:29:03;;;;;;;5.37;4.10;;;;;;;;;;4340713;32;417656;-90
2023/05/25 08:31:30;;;;;;;8.38;5.03;;;;;;;;;;4354775;32;317295;-90
2023/05/25 08:33:56;;;;;;;6.65;4.50;;;;;;;;;;4344674;32;317592;-91
2023/05/25 08:36:24;;;;;;;5.05;3.83;;;;;;;;;;4354626;32;317329;-90
2023/05/25 08:38:50;;;;;;;22.75;4.72;;;;;;;;;;4344131;32;316616;-88
2023/05/25 08:41:20;;;;;;;8.13;3.87;;;;;;;;;;4354533;32;317811;-86
2023/05/25 08:43:48;;;;;;;8.27;4.35;;;;;;;;;;4345822;32;316445;-92
2023/05/25 08:46:16;;;;;;;5.45;4.20;;;;;;;;;;4359828;32;317393;-82
2023/05/25 08:48:45;;;;;;;17.23;4.65;;;;;;;;;;4351781;32;317272;-82
2023/05/25 08:51:15;;;;;;;8.82;4.68;;;;;;;;;;4362944;32;318061;-92
2023/05/25 08:53:43;;;;;;;5.00;3.87;;;;;;;;;;4347346;32;317007;-91
2023/05/25 08:56:17;;;;;;;7.60;4.22;;;;;;;;;;4355049;32;317322;-94
2023/05/25 08:58:46;;;;;;;7.35;4.68;;;;;;;;;;4344509;32;317059;-92
2023/05/25 09:01:18;;;;;;;6.68;4.90;;;;;;;;;;4353137;32;318920;-88
2023/05/25 09:03:46;;;;;;;8.30;4.20;;;;;;;;;;4347197;32;317434;-91
2023/05/25 09:06:14;;;;;;;7.78;4.68;;;;;;;;;;4340974;32;317578;-90
2023/05/25 09:08:41;;;;;;;7.68;4.62;;;;;;;;;;4344220;32;317286;-95
2023/05/25 09:11:08;;;;;;;7.28;3.97;;;;;;;;;;4353855;32;353768;-91
2023/05/25 09:13:37;;;;;;;6.62;5.18;;;;;;;;;;4354216;32;316859;-92
2023/05/25 09:16:04;;;;;;;7.50;5.32;;;;;;;;;;4341374;32;417034;-94
2023/05/25 09:18:32;;;;;;;4.65;4.15;;;;;;;;;;4353899;32;316671;-91
2023/05/25 09:20:59;;;;;;;7.60;4.53;;;;;;;;;;4342827;32;328810;-92
2023/05/25 09:23:26;;;;;;;5.03;4.18;;;;;;;;;;4353028;32;338801;-82
2023/05/25 09:25:54;;;;;;;9.32;4.80;;;;;;;;;;4331044;32;317375;-81
2023/05/25 09:28:21;;;;;;;10.70;6.75;;;;;;;;;;4353061;32;316878;-85
2023/05/25 09:30:48;;;;;;;20.00;6.80;;;;;;;;;;4343918;32;317594;-82
2023/05/25 09:33:16;;;;;;;31.77;9.52;;;;;;;;;;4352584;32;318416;-82
2023/05/25 09:35:46;;;;;;;36.90;9.60;;;;;;;;;;4342236;32;318391;-79
2023/05/25 09:38:14;;;;;;;42.97;12.50;;;;;;;;;;4324950;33;317524;-93
2023/05/25 09:40:41;;;;;;;22.35;9.15;;;;;;;;;;4328338;32;318857;-93
2023/05/25 09:43:08;;;;;;;12.88;5.70;;;;;;;;;;4343679;32;318266;-84
2023/05/25 09:45:36;;;;;;;18.85;7.35;;;;;;;;;;4338961;32;317734;-79
2023/05/25 09:48:03;;;;;;;26.17;7.55;;;;;;;;;;4326320;32;417816;-85
2023/05/25 09:50:30;;;;;;;13.52;5.85;;;;;;;;;;4339364;32;318650;-91
2023/05/25 09:53:00;;;;;;;13.05;6.45;;;;;;;;;;4328049;32;318474;-87
2023/05/25 09:55:28;;;;;;;21.80;6.78;;;;;;;;;;4338971;32;318174;-92
2023/05/25 09:57:55;;;;;;;13.48;6.30;;;;;;;;;;4329194;32;318021;-92
2023/05/25 10:00:23;;;;;;;13.40;6.15;;;;;;;;;;4337850;32;317585;-80
2023/05/25 10:02:50;;;;;;;15.05;7.00;;;;;;;;;;4327413;32;356925;-91
2023/05/25 10:05:17;;;;;;;12.77;7.20;;;;;;;;;;4338380;32;317559;-90
2023/05/25 10:07:44;;;;;;;15.05;6.30;;;;;;;;;;4328506;32;325194;-91
2023/05/25 10:10:15;;;;;;;12.60;6.72;;;;;;;;;;4338251;32;317782;-94
2023/05/25 10:12:43;;;;;;;11.25;6.57;;;;;;;;;;4327761;32;350829;-92
2023/05/25 10:15:12;;;;;;;26.62;7.82;;;;;;;;;;4338544;32;318633;-93
2023/05/25 10:17:45;;;;;;;13.68;6.78;;;;;;;;;;4328459;32;318287;-93
2023/05/25 10:20:13;;;;;;;20.35;10.07;;;;;;;;;;4337244;32;318027;-91
2023/05/25 10:22:44;;;;;;;17.50;9.45;;;;;;;;;;4326216;32;319507;-88
2023/05/25 10:25:17;;;;;;;14.75;8.57;;;;;;;;;;4341085;32;317119;-91
2023/05/25 10:27:47;;;;;;;15.43;8.40;;;;;;;;;;4328069;32;318712;-91
2023/05/25 10:30:15;;;;;;;23.15;8.88;;;;;;;;;;4336691;32;318195;-86
2023/05/25 10:32:44;;;;;;;30.33;8.27;;;;;;;;;;4335027;32;318405;-88
2023/05/25 10:35:11;;;;;;;15.63;7.65;;;;;;;;;;4343378;32;318234;-89
2023/05/25 10:37:39;;;;;;;37.47;21.35;;;;;;;;;;4327009;32;318250;-92
2023/05/25 10:40:08;;;;;;;25.92;14.32;;;;;;;;;;4337344;32;319381;-89
2023/05/25 10:42:37;;;;;;;26.02;12.77;;;;;;;;;;4336893;32;319360;-93
2023/05/25 10:45:06;;;;;;;14.18;9.60;;;;;;;;;;4324305;32;419971;-90
2023/05/25 10:47:33;;;;;;;18.50;8.63;;;;;;;;;;4337739;32;318511;-92
2023/05/25 10:50:02;;;;;;;13.02;8.88;;;;;;;;;;4328574;32;317874;-88
2023/05/25 10:52:30;;;;;;;12.73;6.82;;;;;;;;;;4337580;32;317930;-84
2023/05/25 10:54:58;;;;;;;11.75;7.87;;;;;;;;;;4328937;32;318148;-91
2023/05/25 10:57:26;;;;;;;15.77;7.72;;;;;;;;;;4338253;32;318211;-88
2023/05/25 10:59:58;;;;;;;14.98;7.07;;;;;;;;;;4328206;32;317995;-87
2023/05/25 11:02:28;;;;;;;15.32;6.43;;;;;;;;;;4336956;32;318361;-91
2023/05/25 11:05:28;;;;;;;12.02;6.35;;;;;;;;;;4327643;32;318839;-91
2023/05/25 11:07:55;;;;;;;12.52;7.95;;;;;;;;;;4327613;32;317628;-85
2023/05/25 11:10:55;;;;;;;11.50;6.30;;;;;;;;;;4336617;32;318706;-78
2023/05/25 11:13:23;;;;;;;13.10;7.28;;;;;;;;;;4339692;32;418305;-90
2023/05/25 11:16:12;;;;;;;11.87;7.37;;;;;;;;;;4340577;32;347675;-87
2023/05/25 11:18:40;;;;;;;14.60;7.95;;;;;;;;;;4342885;32;318527;-89
2023/05/25 11:21:15;;;;;;;13.05;6.70;;;;;;;;;;4352330;32;318158;-82
2023/05/25 11:23:56;;;;;;;18.67;9.13;;;;;;;;;;4342049;32;324762;-84
2023/05/25 11:26:23;;;;;;;17.83;8.32;;;;;;;;;;4352753;32;317472;-85
2023/05/25 11:28:51;;;;;;;10.38;7.20;;;;;;;;;;4313516;32;317707;-94
2023/05/25 11:31:23;;;;;;;17.50;7.05;;;;;;;;;;4345931;32;318180;-84
2023/05/25 11:33:56;;;;;;;8.55;6.55;;;;;;;;;;4341632;32;317669;-91
2023/05/25 11:36:23;;;;;;;9.00;6.78;;;;;;;;;;4352337;32;316462;-81
2023/05/25 11:38:51;;;;;;;11.82;6.60;;;;;;;;;;4341633;32;316579;-87
2023/05/25 11:41:18;;;;;;;8.90;6.18;;;;;;;;;;4352218;32;317836;-89
2023/05/25 11:43:46;;;;;;;14.13;6.00;;;;;;;;;;4341026;32;336549;-86
2023/05/25 11:46:14;;;;;;;10.63;6.70;;;;;;;;;;4351055;32;318342;-89
2023/05/25 11:48:51;;;;;;;11.27;5.82;;;;;;;;;;4341082;32;338852;-81
2023/05/25 11:51:19;;;;;;;12.88;6.25;;;;;;;;;;4351974;32;318215;-91
2023/05/25 11:53:46;;;;;;;9.40;4.80;;;;;;;;;;4342809;32;318335;-92
2023/05/25 11:56:14;;;;;;;7.40;5.20;;;;;;;;;;4352532;32;316705;-85
2023/05/25 11:58:43;;;;;;;12.80;5.37;;;;;;;;;;4342459;32;317023;-87
2023/05/25 12:01:15;;;;;;;11.73;5.40;;;;;;;;;;4352264;32;317678;-82
2023/05/25 12:03:44;;;;;;;7.80;5.28;;;;;;;;;;4345047;32;318407;-85
2023/05/25 12:06:26;;;;;;;7.45;5.40;;;;;;;;;;4354547;32;316671;-90
2023/05/25 12:08:52;;;;;;;5.40;4.40;;;;;;;;;;4337081;32;316490;-77
2023/05/25 12:11:27;;;;;;;6.62;4.40;;;;;;;;;;4355308;32;316471;-91
2023/05/25 12:13:54;;;;;;;11.90;6.70;;;;;;;;;;4344179;32;316681;-78
2023/05/25 12:16:21;;;;;;;8.23;6.37;;;;;;;;;;4353694;32;317685;-83
2023/05/25 12:18:48;;;;;;;8.70;5.18;;;;;;;;;;4343990;32;317321;-89
2023/05/25 12:21:16;;;;;;;6.00;5.00;;;;;;;;;;4353493;32;317536;-90
2023/05/25 12:23:44;;;;;;;11.52;4.93;;;;;;;;;;4344815;32;317404;-84
2023/05/25 12:26:13;;;;;;;8.60;5.53;;;;;;;;;;4354445;32;317750;-92
2023/05/25 12:28:40;;;;;;;8.75;5.75;;;;;;;;;;4345076;32;317087;-86
2023/05/25 12:31:23;;;;;;;10.98;5.70;;;;;;;;;;4354855;32;316798;-84
2023/05/25 12:34:03;;;;;;;11.02;4.97;;;;;;;;;;4344833;32;318189;-93
2023/05/25 12:36:41;;;;;;;6.90;4.57;;;;;;;;;;4351922;32;346877;-88
2023/05/25 12:39:11;;;;;;;5.50;4.70;;;;;;;;;;4340649;32;417056;-77
2023/05/25 12:41:46;;;;;;;6.90;4.30;;;;;;;;;;4344667;32;317658;-80
2023/05/25 12:44:34;;;;;;;4.50;4.10;;;;;;;;;;4339572;32;317465;-87
2023/05/25 12:47:10;;;;;;;8.52;5.20;;;;;;;;;;4325233;32;317380;-86
2023/05/25 12:49:39;;;;;;;9.68;4.82;;;;;;;;;;4317845;32;317251;-83
2023/05/25 12:52:07;;;;;;;5.55;3.97;;;;;;;;;;4324528;32;317509;-79
2023/05/25 12:54:42;;;;;;;8.63;4.00;;;;;;;;;;4323804;33;356214;-88
2023/05/25 12:57:10;;;;;;;4.95;4.37;;;;;;;;;;4311174;33;416238;-80
2023/05/25 12:59:38;;;;;;;5.32;3.90;;;;;;;;;;4321614;32;317758;-80
2023/05/25 13:02:06;;;;;;;8.27;4.18;;;;;;;;;;4338905;32;317295;-80
2023/05/25 13:04:33;;;;;;;4.45;3.40;;;;;;;;;;4339835;32;316449;-90
2023/05/25 13:07:00;;;;;;;8.43;2.97;;;;;;;;;;4334947;32;317176;-93
2023/05/25 13:09:27;;;;;;;4.60;3.60;;;;;;;;;;4341656;32;317478;-94
2023/05/25 13:11:57;;;;;;;7.10;3.50;;;;;;;;;;4329317;32;316713;-92
2023/05/25 13:14:24;;;;;;;4.68;2.83;;;;;;;;;;4338835;32;317443;-92
2023/05/25 13:16:52;;;;;;;8.95;3.60;;;;;;;;;;4328976;32;317664;-93
2023/05/25 13:19:23;;;;;;;5.53;3.67;;;;;;;;;;4338104;32;316666;-92
2023/05/25 13:21:50;;;;;;;5.37;3.17;;;;;;;;;;4329700;32;317515;-93
2023/05/25 13:24:18;;;;;;;5.70;3.40;;;;;;;;;;4348411;32;317282;-81
2023/05/25 13:26:45;;;;;;;4.03;3.30;;;;;;;;;;4344871;32;316880;-90
2023/05/25 13:29:14;;;;;;;5.75;3.17;;;;;;;;;;4354493;32;317165;-93
2023/05/25 13:31:41;;;;;;;3.92;3.00;;;;;;;;;;4344284;32;341655;-91
2023/05/25 13:34:08;;;;;;;6.82;3.45;;;;;;;;;;4351081;32;327444;-78
2023/05/25 13:36:35;;;;;;;5.18;3.92;;;;;;;;;;4340459;32;317396;-92
2023/05/25 13:39:04;;;;;;;4.12;2.92;;;;;;;;;;4335524;32;416342;-91
2023/05/25 13:41:31;;;;;;;5.07;3.90;;;;;;;;;;4348801;32;317717;-91
2023/05/25 13:43:58;;;;;;;8.18;2.47;;;;;;;;;;4338523;32;316734;-93
2023/05/25 13:46:27;;;;;;;4.75;3.03;;;;;;;;;;4346701;32;316812;-91
2023/05/25 13:48:54;;;;;;;6.47;3.22;;;;;;;;;;4344331;32;317598;-81
2023/05/25 13:51:21;;;;;;;18.92;2.58;;;;;;;;;;4333068;32;316582;-91
2023/05/25 13:53:47;;;;;;;3.58;2.80;;;;;;;;;;4343854;32;318852;-94
2023/05/25 13:56:14;;;;;;;2.78;2.50;;;;;;;;;;4352872;32;316836;-92
2023/05/25 13:58:41;;;;;;;6.65;3.22;;;;;;;;;;4343354;32;317762;-96
2023/05/25 14:01:08;;;;;;;6.93;2.95;;;;;;;;;;4344705;32;316559;-80
2023/05/25 14:03:37;;;;;;;6.15;2.70;;;;;;;;;;4337054;32;316718;-91
2023/05/25 14:06:04;;;;;;;3.58;2.90;;;;;;;;;;4323581;32;416739;-93
2023/05/25 14:08:31;;;;;;;5.15;2.78;;;;;;;;;;4324307;33;317540;-96
2023/05/25 14:10:58;;;;;;;5.85;3.42;;;;;;;;;;4314829;33;317240;-95
2023/05/25 14:13:25;;;;;;;4.93;2.90;;;;;;;;;;4324045;33;317887;-92
2023/05/25 14:15:52;;;;;;;2.75;2.40;;;;;;;;;;4319376;32;317322;-92
2023/05/25 14:18:19;;;;;;;3.92;2.42;;;;;;;;;;4353600;32;317446;-95
2023/05/25 14:20:49;;;;;;;4.60;2.45;;;;;;;;;;4343367;32;316971;-93
2023/05/25 14:23:17;;;;;;;3.90;3.20;;;;;;;;;;4352500;32;316543;-96
2023/05/25 14:25:45;;;;;;;13.43;3.40;;;;;;;;;;4344214;32;317308;-95
2023/05/25 14:28:12;;;;;;;5.57;3.50;;;;;;;;;;4354436;32;318193;-96
2023/05/25 14:30:38;;;;;;;4.45;2.80;;;;;;;;;;4344969;32;317326;-95